createdAt,value
2019-03-06T00:00:47.858Z,88.10
2019-03-06T00:03:16.654Z,88.30
2019-03-06T00:05:45.450Z,88.10
2019-03-06T00:08:14.215Z,88.00
2019-03-06T00:10:43.008Z,88.10
2019-03-06T00:13:11.802Z,87.70
2019-03-06T00:15:40.735Z,87.70
2019-03-06T00:18:09.473Z,87.80
2019-03-06T00:20:38.202Z,87.70
2019-03-06T00:23:06.990Z,88.00
2019-03-06T00:25:35.710Z,88.10
2019-03-06T00:28:04.438Z,88.10
2019-03-06T00:30:33.262Z,88.10
2019-03-06T00:33:01.985Z,88.80
2019-03-06T00:35:47.649Z,87.90
2019-03-06T00:38:16.380Z,88.00
2019-03-06T00:40:56.386Z,88.50
2019-03-06T00:43:25.116Z,89.40
2019-03-06T00:45:53.914Z,88.30
2019-03-06T00:48:22.666Z,88.00
2019-03-06T00:50:51.390Z,87.80
2019-03-06T00:53:20.173Z,87.60
2019-03-06T00:55:48.930Z,87.60
2019-03-06T00:58:17.663Z,86.70
2019-03-06T01:00:46.459Z,87.30
2019-03-06T01:03:15.275Z,87.40
2019-03-06T01:05:44.105Z,87.40
2019-03-06T01:08:12.894Z,87.30
2019-03-06T01:10:41.731Z,87.30
2019-03-06T01:13:10.674Z,87.80
2019-03-06T01:15:39.470Z,88.00
2019-03-06T01:18:08.334Z,88.00
2019-03-06T01:20:37.134Z,87.80
2019-03-06T01:23:06.035Z,87.90
2019-03-06T01:25:34.857Z,87.70
2019-03-06T01:28:03.579Z,88.50
2019-03-06T01:30:32.305Z,87.90
2019-03-06T01:33:08.410Z,87.60
2019-03-06T01:35:57.112Z,87.80
2019-03-06T01:38:33.301Z,87.80
2019-03-06T01:41:03.660Z,87.30
2019-03-06T01:43:34.030Z,87.60
2019-03-06T01:46:02.871Z,87.80
2019-03-06T01:48:31.665Z,87.60
2019-03-06T01:51:00.386Z,87.80
2019-03-06T01:53:29.210Z,87.60
2019-03-06T01:55:57.938Z,87.80
2019-03-06T01:58:26.762Z,87.80
2019-03-06T02:00:55.593Z,87.80
2019-03-06T02:03:24.386Z,88.10
2019-03-06T02:05:53.188Z,88.40
2019-03-06T02:08:21.934Z,88.50
2019-03-06T02:10:51.006Z,88.50
2019-03-06T02:13:22.692Z,88.00
2019-03-06T02:15:51.518Z,88.10
2019-03-06T02:18:20.316Z,88.00
2019-03-06T02:20:49.146Z,88.10
2019-03-06T02:23:17.890Z,88.00
2019-03-06T02:25:46.786Z,88.10
2019-03-06T02:28:15.530Z,88.10
2019-03-06T02:30:44.330Z,88.20
2019-03-06T02:33:13.058Z,87.80
2019-03-06T02:35:42.021Z,87.60
2019-03-06T02:38:10.822Z,88.40
2019-03-06T02:40:39.615Z,88.10
2019-03-06T02:43:08.388Z,88.00
2019-03-06T02:45:37.099Z,88.00
2019-03-06T02:48:06.223Z,88.00
2019-03-06T02:50:35.009Z,87.60
2019-03-06T02:53:03.736Z,88.30
2019-03-06T02:55:32.460Z,88.10
2019-03-06T02:58:14.903Z,87.80
2019-03-06T03:00:48.033Z,87.80
2019-03-06T03:03:27.087Z,87.70
2019-03-06T03:06:03.100Z,87.60
2019-03-06T03:08:32.164Z,87.80
2019-03-06T03:11:01.185Z,88.10
2019-03-06T03:13:29.906Z,88.10
2019-03-06T03:15:58.731Z,88.30
2019-03-06T03:18:27.462Z,88.50
2019-03-06T03:20:56.486Z,88.30
2019-03-06T03:23:25.232Z,88.30
2019-03-06T03:25:53.963Z,89.30
2019-03-06T03:28:22.691Z,88.30
2019-03-06T03:30:51.510Z,88.30
2019-03-06T03:33:20.319Z,88.40
2019-03-06T03:35:49.095Z,88.30
2019-03-06T03:38:17.863Z,88.50
2019-03-06T03:40:46.645Z,88.30
2019-03-06T03:43:15.368Z,88.60
2019-03-06T03:45:44.174Z,88.70
2019-03-06T03:48:12.899Z,88.80
2019-03-06T03:50:41.633Z,88.60
2019-03-06T03:53:10.384Z,89.30
2019-03-06T03:55:39.231Z,88.70
2019-03-06T03:58:07.980Z,89.30
2019-03-06T04:00:37.038Z,89.70
2019-03-06T04:03:05.867Z,89.80
2019-03-06T04:05:34.591Z,89.50
2019-03-06T04:08:03.378Z,89.80
2019-03-06T04:10:32.118Z,89.60
2019-03-06T04:13:00.935Z,89.90
2019-03-06T04:15:29.740Z,89.80
2019-03-06T04:17:58.471Z,90.00
2019-03-06T04:20:27.276Z,90.00
2019-03-06T04:22:56.037Z,90.00
2019-03-06T04:25:24.772Z,90.00
2019-03-06T04:27:53.660Z,89.80
2019-03-06T04:30:22.466Z,90.20
2019-03-06T04:32:51.258Z,89.70
2019-03-06T04:35:20.003Z,90.00
2019-03-06T04:37:48.828Z,90.00
2019-03-06T04:40:17.946Z,89.80
2019-03-06T04:42:46.746Z,90.10
2019-03-06T04:45:18.666Z,90.00
2019-03-06T04:47:47.395Z,90.00
2019-03-06T04:50:16.426Z,90.20
2019-03-06T04:52:45.553Z,90.30
2019-03-06T04:55:15.382Z,90.50
2019-03-06T04:57:44.115Z,90.60
2019-03-06T05:00:16.971Z,90.70
2019-03-06T05:02:45.690Z,90.70
2019-03-06T05:05:14.510Z,90.70
2019-03-06T05:07:43.386Z,90.60
2019-03-06T05:10:15.414Z,90.50
2019-03-06T05:12:44.167Z,90.70
2019-03-06T05:15:17.838Z,90.60
2019-03-06T05:17:54.346Z,90.70
2019-03-06T05:20:23.167Z,90.70
2019-03-06T05:22:51.895Z,90.80
2019-03-06T05:25:20.747Z,91.10
2019-03-06T05:27:49.483Z,90.60
2019-03-06T05:30:19.959Z,90.40
2019-03-06T05:33:03.299Z,90.90
2019-03-06T05:38:21.102Z,90.70
2019-03-06T05:40:49.826Z,91.00
2019-03-06T05:43:18.606Z,91.30
2019-03-06T05:45:47.656Z,91.10
2019-03-06T05:48:16.494Z,91.50
2019-03-06T05:50:45.256Z,91.70
2019-03-06T05:53:13.982Z,91.60
2019-03-06T05:55:42.780Z,92.00
2019-03-06T05:58:11.914Z,92.20
2019-03-06T06:00:40.738Z,92.30
2019-03-06T06:03:09.485Z,92.40
2019-03-06T06:05:38.281Z,92.40
2019-03-06T06:08:07.072Z,92.40
2019-03-06T06:10:36.130Z,91.60
2019-03-06T06:13:04.926Z,91.70
2019-03-06T06:15:33.656Z,91.40
2019-03-06T06:18:02.413Z,90.40
2019-03-06T06:20:31.137Z,90.40
2019-03-06T06:23:10.864Z,90.50
2019-03-06T06:25:39.587Z,90.70
2019-03-06T06:28:08.356Z,90.50
2019-03-06T06:30:37.170Z,90.70
2019-03-06T06:33:05.899Z,90.60
2019-03-06T06:35:34.727Z,90.80
2019-03-06T06:38:05.394Z,90.90
2019-03-06T06:40:35.708Z,90.80
2019-03-06T06:43:04.223Z,90.80
2019-03-06T06:45:33.291Z,90.80
2019-03-06T06:48:10.248Z,90.60
2019-03-06T06:50:41.868Z,90.60
2019-03-06T06:53:29.911Z,90.50
2019-03-06T06:56:33.378Z,90.40
2019-03-06T06:59:21.658Z,90.50
2019-03-06T07:02:23.746Z,90.90
2019-03-06T07:05:20.178Z,91.00
2019-03-06T07:08:05.923Z,90.80
2019-03-06T07:10:42.286Z,90.30
2019-03-06T07:13:24.983Z,90.20
2019-03-06T07:16:10.600Z,90.10
2019-03-06T07:18:41.018Z,90.20
2019-03-06T07:21:11.382Z,89.80
2019-03-06T07:23:44.582Z,89.50
2019-03-06T07:26:14.991Z,90.30
2019-03-06T07:29:01.320Z,89.60
2019-03-06T07:31:43.854Z,89.70
2019-03-06T07:34:29.220Z,89.20
2019-03-06T07:36:59.771Z,89.00
2019-03-06T07:39:29.462Z,89.10
2019-03-06T07:42:14.758Z,88.70
2019-03-06T07:45:04.661Z,88.90
2019-03-06T07:47:37.782Z,89.10
2019-03-06T07:50:16.562Z,89.20
2019-03-06T07:52:49.891Z,89.20
2019-03-06T07:55:22.702Z,89.90
2019-03-06T07:58:28.002Z,90.00
2019-03-06T08:00:56.799Z,90.20
2019-03-06T08:03:25.724Z,90.40
2019-03-06T08:05:54.555Z,90.20
2019-03-06T08:08:23.357Z,90.00
2019-03-06T08:10:53.259Z,90.40
2019-03-06T08:13:23.662Z,90.40
2019-03-06T08:15:57.019Z,90.30
2019-03-06T08:18:27.386Z,90.00
2019-03-06T08:20:57.785Z,90.40
2019-03-06T08:23:40.594Z,90.50
2019-03-06T08:26:09.418Z,90.50
2019-03-06T08:28:38.149Z,90.70
2019-03-06T08:31:23.627Z,91.00
2019-03-06T08:33:52.359Z,90.80
2019-03-06T08:36:21.085Z,91.20
2019-03-06T08:38:49.841Z,91.10
2019-03-06T08:41:18.766Z,91.40
2019-03-06T08:43:47.494Z,91.60
2019-03-06T08:46:21.112Z,91.60
2019-03-06T08:48:54.219Z,91.60
2019-03-06T08:51:30.588Z,91.40
2019-03-06T08:54:00.971Z,92.00
2019-03-06T08:56:34.044Z,92.20
2019-03-06T08:59:21.134Z,91.90
2019-03-06T09:02:00.066Z,92.40
2019-03-06T09:04:26.922Z,92.00
2019-03-06T09:06:59.795Z,92.20
2019-03-06T09:09:36.302Z,92.40
2019-03-06T09:12:12.560Z,92.40
2019-03-06T09:14:48.696Z,92.50
2019-03-06T09:17:26.732Z,92.30
2019-03-06T09:20:03.302Z,93.20
2019-03-06T09:22:39.794Z,92.80
2019-03-06T09:25:16.278Z,92.50
2019-03-06T09:27:52.530Z,92.70
2019-03-06T09:30:22.894Z,92.50
2019-03-06T09:32:59.251Z,92.70
2019-03-06T09:35:35.611Z,92.90
2019-03-06T09:38:11.068Z,93.00
2019-03-06T09:40:41.058Z,93.00
2019-03-06T09:43:11.453Z,92.90
2019-03-06T09:45:44.647Z,93.10
2019-03-06T09:48:15.018Z,92.80
2019-03-06T09:50:48.162Z,93.00
2019-03-06T09:53:18.567Z,93.20
2019-03-06T09:55:57.970Z,93.30
2019-03-06T09:58:40.439Z,93.30
2019-03-06T10:01:16.853Z,93.80
2019-03-06T10:04:05.668Z,93.40
2019-03-06T10:06:42.111Z,93.60
2019-03-06T10:09:20.366Z,93.60
2019-03-06T10:12:02.803Z,94.00
2019-03-06T10:14:35.866Z,93.70
2019-03-06T10:17:06.677Z,93.70
2019-03-06T10:19:54.916Z,93.80
2019-03-06T10:22:23.783Z,93.70
2019-03-06T10:24:52.606Z,93.90
2019-03-06T10:27:21.334Z,94.00
2019-03-06T10:29:50.064Z,94.10
2019-03-06T10:32:18.894Z,94.30
2019-03-06T10:34:47.670Z,94.40
2019-03-06T10:37:18.044Z,94.30
2019-03-06T10:39:47.091Z,94.30
2019-03-06T10:42:15.887Z,94.10
2019-03-06T10:44:44.694Z,93.70
2019-03-06T10:47:13.453Z,93.80
2019-03-06T10:49:42.187Z,94.00
2019-03-06T10:52:10.924Z,94.10
2019-03-06T10:54:44.601Z,94.20
2019-03-06T10:57:11.887Z,94.30
2019-03-06T10:59:40.960Z,94.20
2019-03-06T11:02:09.815Z,94.20
2019-03-06T11:04:46.515Z,93.90
2019-03-06T11:07:16.091Z,94.20
2019-03-06T11:09:45.290Z,94.30
2019-03-06T11:12:14.015Z,94.40
2019-03-06T11:14:44.538Z,94.60
2019-03-06T11:17:13.595Z,94.90
2019-03-06T11:19:42.791Z,94.60
2019-03-06T11:22:11.622Z,94.50
2019-03-06T11:24:40.354Z,94.50
2019-03-06T11:27:09.531Z,94.20
2019-03-06T11:29:38.559Z,94.40
2019-03-06T11:32:08.063Z,94.40
2019-03-06T11:34:36.990Z,94.50
2019-03-06T11:37:06.492Z,94.40
2019-03-06T11:39:35.275Z,94.50
2019-03-06T11:42:04.107Z,94.30
2019-03-06T11:44:32.920Z,94.40
2019-03-06T11:47:01.714Z,94.50
2019-03-06T11:49:30.442Z,94.10
2019-03-06T11:51:59.287Z,93.80
2019-03-06T11:54:28.015Z,93.90
2019-03-06T11:56:56.830Z,93.50
2019-03-06T11:59:25.574Z,93.70
2019-03-06T12:01:54.402Z,94.20
2019-03-06T12:04:23.503Z,93.30
2019-03-06T12:06:52.464Z,94.00
2019-03-06T12:09:28.691Z,93.90
2019-03-06T12:11:57.742Z,93.60
2019-03-06T12:14:26.540Z,93.70
2019-03-06T12:16:55.360Z,93.90
2019-03-06T12:19:24.210Z,94.30
2019-03-06T12:21:53.006Z,94.20
2019-03-06T12:24:21.806Z,94.50
2019-03-06T12:26:50.607Z,94.90
2019-03-06T12:29:19.354Z,95.00
2019-03-06T12:31:48.154Z,95.20
2019-03-06T12:34:17.178Z,95.20
2019-03-06T12:36:46.033Z,95.40
2019-03-06T12:39:15.062Z,95.60
2019-03-06T12:41:44.566Z,95.80
2019-03-06T12:44:13.554Z,95.90
2019-03-06T12:46:42.683Z,95.90
2019-03-06T12:49:11.712Z,95.80
2019-03-06T12:51:40.514Z,95.60
2019-03-06T12:54:09.477Z,95.80
2019-03-06T12:56:38.277Z,95.70
2019-03-06T12:59:07.275Z,95.70
2019-03-06T13:01:36.035Z,95.80
2019-03-06T13:04:05.358Z,95.80
2019-03-06T13:06:34.094Z,95.80
2019-03-06T13:09:05.589Z,95.90
2019-03-06T13:11:34.319Z,96.40
2019-03-06T13:14:03.110Z,96.00
2019-03-06T13:16:31.938Z,96.00
2019-03-06T13:19:00.966Z,96.10
2019-03-06T13:21:29.762Z,96.10
2019-03-06T13:23:58.574Z,96.00
2019-03-06T13:26:27.463Z,96.10
2019-03-06T13:28:57.715Z,96.20
2019-03-06T13:31:26.797Z,96.10
2019-03-06T13:33:57.391Z,96.20
2019-03-06T13:36:26.118Z,96.30
2019-03-06T13:39:03.180Z,96.30
2019-03-06T13:41:25.402Z,96.40
2019-03-06T13:43:54.159Z,96.40
2019-03-06T13:46:22.983Z,96.40
2019-03-06T13:48:51.818Z,96.50
2019-03-06T13:51:20.626Z,96.60
2019-03-06T13:53:49.447Z,96.70
2019-03-06T13:56:18.230Z,96.80
2019-03-06T13:58:46.994Z,96.80
2019-03-06T14:01:15.822Z,96.90
2019-03-06T14:03:44.929Z,96.90
2019-03-06T14:06:13.963Z,97.00
2019-03-06T14:08:42.794Z,97.20
2019-03-06T14:11:11.530Z,97.10
2019-03-06T14:13:40.302Z,97.10
2019-03-06T14:16:09.153Z,97.10
2019-03-06T14:18:38.180Z,97.10
2019-03-06T14:21:06.986Z,97.10
2019-03-06T14:23:35.819Z,97.00
2019-03-06T14:26:06.231Z,97.00
2019-03-06T14:28:34.994Z,97.10
2019-03-06T14:31:04.235Z,97.10
2019-03-06T14:33:33.163Z,97.00
2019-03-06T14:36:01.975Z,97.10
2019-03-06T14:38:30.833Z,97.20
2019-03-06T14:40:59.723Z,96.80
2019-03-06T14:43:28.542Z,97.30
2019-03-06T14:45:57.472Z,97.30
2019-03-06T14:48:26.540Z,97.40
2019-03-06T14:50:55.434Z,97.40
2019-03-06T14:53:24.258Z,97.40
2019-03-06T14:55:53.011Z,97.40
2019-03-06T14:58:21.798Z,97.50
2019-03-06T15:00:50.826Z,97.50
2019-03-06T15:03:19.862Z,97.60
2019-03-06T15:05:48.664Z,97.70
2019-03-06T15:08:17.479Z,97.80
2019-03-06T15:10:46.206Z,97.80
2019-03-06T15:13:15.936Z,97.80
2019-03-06T15:15:44.806Z,97.80
2019-03-06T15:18:14.544Z,97.80
2019-03-06T15:20:43.447Z,97.90
2019-03-06T15:23:12.275Z,98.10
2019-03-06T15:25:41.002Z,98.00
2019-03-06T15:28:09.795Z,97.90
2019-03-06T15:30:39.836Z,98.10
2019-03-06T15:33:08.556Z,98.30
2019-03-06T15:35:37.354Z,98.10
2019-03-06T15:38:07.927Z,98.00
2019-03-06T15:40:40.364Z,97.80
2019-03-06T15:43:13.083Z,98.20
2019-03-06T15:45:42.031Z,97.90
2019-03-06T15:48:10.771Z,97.80
2019-03-06T15:50:39.522Z,97.70
2019-03-06T15:53:08.259Z,97.70
2019-03-06T15:55:37.160Z,97.80
2019-03-06T15:58:06.143Z,97.80
2019-03-06T16:00:45.379Z,97.80
2019-03-06T16:03:13.596Z,97.80
2019-03-06T16:05:44.056Z,97.60
2019-03-06T16:08:14.054Z,97.70
2019-03-06T16:10:43.113Z,97.90
2019-03-06T16:13:11.912Z,97.80
2019-03-06T16:15:40.709Z,97.80
2019-03-06T16:18:10.434Z,97.90
2019-03-06T16:20:40.147Z,97.90
2019-03-06T16:23:09.179Z,97.90
2019-03-06T16:25:40.132Z,97.90
2019-03-06T16:28:08.930Z,97.90
2019-03-06T16:30:37.830Z,97.90
2019-03-06T16:33:06.604Z,97.90
2019-03-06T16:35:35.418Z,97.90
2019-03-06T16:38:04.179Z,97.80
2019-03-06T16:40:33.265Z,97.90
2019-03-06T16:43:02.110Z,98.30
2019-03-06T16:45:30.994Z,97.90
2019-03-06T16:48:01.258Z,98.00
2019-03-06T16:50:30.003Z,98.10
2019-03-06T16:52:59.198Z,98.00
2019-03-06T16:55:28.346Z,98.10
2019-03-06T16:57:57.648Z,98.10
2019-03-06T17:00:36.474Z,98.20
2019-03-06T17:03:06.843Z,98.20
2019-03-06T17:05:35.740Z,98.30
2019-03-06T17:08:05.100Z,98.30
2019-03-06T17:10:35.131Z,98.30
2019-03-06T17:13:04.621Z,98.30
2019-03-06T17:15:33.752Z,98.30
2019-03-06T17:18:02.757Z,98.40
2019-03-06T17:20:33.928Z,98.40
2019-03-06T17:23:02.854Z,98.40
2019-03-06T17:25:32.957Z,98.40
2019-03-06T17:28:01.776Z,98.40
2019-03-06T17:30:32.375Z,98.50
2019-03-06T17:33:06.201Z,98.50
2019-03-06T17:35:35.890Z,98.50
2019-03-06T17:38:05.992Z,98.50
2019-03-06T17:40:35.019Z,98.60
2019-03-06T17:43:04.350Z,98.50
2019-03-06T17:45:33.476Z,98.60
2019-03-06T17:48:02.870Z,98.70
2019-03-06T17:50:31.617Z,98.70
2019-03-06T17:53:00.650Z,98.70
2019-03-06T17:55:29.487Z,98.70
2019-03-06T17:57:59.122Z,98.80
2019-03-06T18:00:39.422Z,98.90
2019-03-06T18:03:09.433Z,98.90
2019-03-06T18:05:38.291Z,98.90
2019-03-06T18:08:07.146Z,99.00
2019-03-06T18:10:35.901Z,99.10
2019-03-06T18:13:04.822Z,99.20
2019-03-06T18:15:33.670Z,99.10
2019-03-06T18:18:02.480Z,99.20
2019-03-06T18:20:31.293Z,99.30
2019-03-06T18:23:00.142Z,99.20
2019-03-06T18:25:28.971Z,99.30
2019-03-06T18:27:57.772Z,99.30
2019-03-06T18:30:26.901Z,99.50
2019-03-06T18:32:55.629Z,99.50
2019-03-06T18:35:24.435Z,99.50
2019-03-06T18:37:53.219Z,99.50
2019-03-06T18:40:26.464Z,99.50
2019-03-06T18:42:55.218Z,99.50
2019-03-06T18:45:24.049Z,99.50
2019-03-06T18:47:53.046Z,99.60
2019-03-06T18:50:25.062Z,99.70
2019-03-06T18:52:54.005Z,99.70
2019-03-06T18:55:22.841Z,99.80
2019-03-06T18:57:51.580Z,99.80
2019-03-06T19:00:22.470Z,99.80
2019-03-06T19:02:51.302Z,99.80
2019-03-06T19:05:20.917Z,99.90
2019-03-06T19:07:50.405Z,99.80
2019-03-06T19:10:21.270Z,99.90
2019-03-06T19:12:50.398Z,99.80
2019-03-06T19:15:20.930Z,99.80
2019-03-06T19:17:49.714Z,99.90
2019-03-06T19:20:20.190Z,99.90
2019-03-06T19:22:49.507Z,99.90
2019-03-06T19:25:20.310Z,99.90
2019-03-06T19:27:49.092Z,99.90
2019-03-06T19:30:25.040Z,99.90
2019-03-06T19:32:54.089Z,99.90
2019-03-06T19:35:25.094Z,99.90
2019-03-06T19:37:53.828Z,99.90
2019-03-06T19:40:22.900Z,99.90
2019-03-06T19:42:51.700Z,99.90
2019-03-06T19:45:22.402Z,99.90
2019-03-06T19:47:51.162Z,99.90
2019-03-06T19:50:22.264Z,99.90
2019-03-06T19:52:51.613Z,99.90
2019-03-06T19:55:20.826Z,99.90
2019-03-06T19:57:52.502Z,99.90
2019-03-06T20:00:22.663Z,99.90
2019-03-06T20:02:52.382Z,99.90
2019-03-06T20:05:21.979Z,99.90
2019-03-06T20:07:50.725Z,99.90
2019-03-06T20:10:19.787Z,99.90
2019-03-06T20:12:48.556Z,99.90
2019-03-06T20:15:20.446Z,99.90
2019-03-06T20:17:49.306Z,99.90
2019-03-06T20:20:19.019Z,99.90
2019-03-06T20:22:48.333Z,99.90
2019-03-06T20:25:19.004Z,99.90
2019-03-06T20:27:48.073Z,99.90
2019-03-06T20:30:24.950Z,99.90
2019-03-06T20:32:53.950Z,99.90
2019-03-06T20:35:24.179Z,99.90
2019-03-06T20:37:53.324Z,99.90
2019-03-06T20:40:22.349Z,99.90
2019-03-06T20:42:51.146Z,99.90
2019-03-06T20:45:20.952Z,99.80
2019-03-06T20:47:49.770Z,99.80
2019-03-06T20:50:19.546Z,99.70
2019-03-06T20:52:50.202Z,99.70
2019-03-06T20:55:18.849Z,99.70
2019-03-06T20:57:47.627Z,99.70
2019-03-06T21:00:24.598Z,99.70
2019-03-06T21:02:53.437Z,99.70
2019-03-06T21:05:22.233Z,99.70
2019-03-06T21:07:50.998Z,99.60
2019-03-06T21:10:20.439Z,99.70
2019-03-06T21:12:49.162Z,99.90
2019-03-06T21:15:24.436Z,99.70
2019-03-06T21:17:53.188Z,99.70
2019-03-06T21:20:23.026Z,99.70
2019-03-06T21:22:51.994Z,99.70
2019-03-06T21:25:21.817Z,99.70
2019-03-06T21:27:50.852Z,99.80
2019-03-06T21:30:25.451Z,99.70
2019-03-06T21:32:54.263Z,99.70
2019-03-06T21:35:23.091Z,99.70
2019-03-06T21:37:51.919Z,99.60
2019-03-06T21:40:20.729Z,99.40
2019-03-06T21:42:49.662Z,99.70
2019-03-06T21:45:18.423Z,99.90
2019-03-06T21:47:47.232Z,99.70
2019-03-06T21:50:18.309Z,99.70
2019-03-06T21:52:47.063Z,99.80
2019-03-06T21:55:16.301Z,99.80
2019-03-06T21:57:45.226Z,99.90
2019-03-06T22:00:19.742Z,99.80
2019-03-06T22:02:48.537Z,99.80
2019-03-06T22:05:17.395Z,99.70
2019-03-06T22:07:46.168Z,99.80
2019-03-06T22:10:16.480Z,99.80
2019-03-06T22:12:45.637Z,99.80
2019-03-06T22:15:17.046Z,99.80
2019-03-06T22:17:45.778Z,99.70
2019-03-06T22:20:15.603Z,99.70
2019-03-06T22:22:44.377Z,99.70
2019-03-06T22:25:14.902Z,99.70
2019-03-06T22:27:43.635Z,99.70
2019-03-06T22:30:22.349Z,99.80
2019-03-06T22:32:50.714Z,99.70
2019-03-06T22:35:19.504Z,99.70
2019-03-06T22:37:48.318Z,99.80
2019-03-06T22:40:20.782Z,99.70
2019-03-06T22:42:49.510Z,99.70
2019-03-06T22:45:19.396Z,99.70
2019-03-06T22:47:48.222Z,99.70
2019-03-06T22:50:20.162Z,99.80
2019-03-06T22:52:49.326Z,99.70
2019-03-06T22:55:19.221Z,99.70
2019-03-06T22:57:48.252Z,99.70
2019-03-06T23:00:32.622Z,99.80
2019-03-06T23:03:01.454Z,99.50
2019-03-06T23:05:32.602Z,99.70
2019-03-06T23:08:01.431Z,99.50
2019-03-06T23:10:30.158Z,99.50
2019-03-06T23:12:58.887Z,99.50
2019-03-06T23:15:27.930Z,99.50
2019-03-06T23:17:58.181Z,99.40
2019-03-06T23:20:27.015Z,99.40
2019-03-06T23:22:56.433Z,99.40
2019-03-06T23:25:25.259Z,99.30
2019-03-06T23:27:53.983Z,99.30
2019-03-06T23:30:22.772Z,99.30
2019-03-06T23:32:51.741Z,99.20
2019-03-06T23:35:20.516Z,99.30
2019-03-06T23:37:49.439Z,99.30
2019-03-06T23:40:18.190Z,99.20
2019-03-06T23:42:48.150Z,99.20
2019-03-06T23:45:17.084Z,99.40
2019-03-06T23:47:45.822Z,99.30
2019-03-06T23:50:14.722Z,99.30
2019-03-06T23:52:59.974Z,99.30
2019-03-06T23:55:30.353Z,99.40
2019-03-06T23:57:59.778Z,99.40
